createdAt,value
2018-05-15T09:24:21.441Z,38.00
2018-05-15T09:26:48.931Z,46.80
2018-05-15T09:29:17.016Z,39.70
2018-05-15T09:31:45.216Z,37.70
2018-05-15T09:34:13.916Z,38.70
2018-05-15T09:36:41.408Z,38.70
2018-05-15T09:39:08.893Z,39.10
2018-05-15T09:41:37.176Z,39.00
2018-05-15T09:44:05.510Z,38.50
2018-05-15T09:46:32.999Z,38.60
2018-05-15T09:49:01.337Z,37.70
2018-05-15T09:51:28.823Z,38.20
2018-05-15T09:53:56.338Z,40.20
2018-05-15T09:56:23.811Z,39.80
2018-05-15T09:58:51.301Z,38.10
2018-05-15T10:01:18.820Z,38.10
2018-05-15T10:03:46.334Z,38.10
2018-05-15T10:06:14.669Z,37.20
2018-05-15T10:08:42.181Z,37.10
2018-05-15T10:11:10.469Z,37.90
2018-05-15T10:13:38.589Z,37.90
2018-05-15T10:16:06.669Z,39.20
2018-05-15T10:18:34.954Z,37.50
2018-05-15T10:21:02.463Z,36.80
2018-05-15T10:23:29.972Z,36.30
2018-05-15T10:25:57.966Z,38.20
2018-05-15T10:28:26.281Z,35.60
2018-05-15T10:30:53.766Z,36.30
2018-05-15T10:33:21.264Z,36.60
2018-05-15T10:35:48.793Z,35.60
2018-05-15T10:38:16.424Z,34.80
2018-05-15T10:40:43.900Z,35.40
2018-05-15T10:43:12.354Z,34.00
2018-05-15T10:45:40.698Z,34.50
2018-05-15T10:48:08.209Z,35.60
2018-05-15T10:50:36.456Z,35.40
2018-05-15T10:53:04.802Z,35.30
2018-05-15T10:55:32.395Z,35.50
2018-05-15T10:58:00.736Z,34.40
2018-05-15T11:00:29.004Z,34.30
2018-05-15T11:02:57.247Z,33.20
2018-05-15T11:05:24.749Z,33.10
2018-05-15T11:07:53.058Z,33.00
2018-05-15T11:10:20.680Z,33.00
2018-05-15T11:12:49.044Z,32.00
2018-05-15T11:15:16.539Z,31.60
2018-05-15T11:17:44.061Z,32.70
2018-05-15T11:20:23.720Z,33.90
2018-05-15T11:23:04.408Z,34.20
2018-05-15T11:25:31.908Z,34.20
2018-05-15T11:27:59.402Z,34.40
2018-05-15T11:30:27.744Z,35.80
2018-05-15T11:32:55.367Z,35.80
2018-05-15T11:35:23.043Z,35.40
2018-05-15T11:37:50.630Z,35.60
2018-05-15T11:40:18.225Z,36.20
2018-05-15T11:42:46.494Z,33.40
2018-05-15T11:45:14.844Z,33.40
2018-05-15T11:47:42.419Z,33.30
2018-05-15T11:50:10.671Z,32.80
2018-05-15T11:52:38.030Z,34.80
2018-05-15T11:55:05.079Z,34.50
2018-05-15T11:57:32.584Z,34.70
2018-05-15T12:00:00.212Z,34.90
2018-05-15T12:02:28.458Z,34.70
2018-05-15T12:04:55.922Z,34.60
2018-05-15T12:07:24.371Z,33.90
2018-05-15T12:09:51.886Z,33.20
2018-05-15T12:12:19.428Z,33.70
2018-05-15T12:14:46.927Z,34.60
2018-05-15T12:17:15.189Z,34.70
2018-05-15T12:19:43.439Z,34.10
2018-05-15T12:22:10.922Z,34.10
2018-05-15T12:24:39.322Z,33.50
2018-05-15T12:27:06.754Z,33.50
2018-05-15T12:29:34.998Z,32.90
2018-05-15T12:32:02.494Z,32.90
2018-05-15T12:34:31.625Z,31.60
2018-05-15T12:36:59.262Z,31.70
2018-05-15T12:39:28.123Z,32.30
2018-05-15T12:41:56.805Z,32.20
2018-05-15T12:44:24.374Z,32.40
2018-05-15T12:46:52.569Z,32.90
2018-05-15T12:49:20.208Z,36.60
2018-05-15T12:51:48.488Z,32.60
2018-05-15T12:54:16.744Z,33.70
2018-05-15T12:56:44.304Z,34.00
2018-05-15T12:59:11.811Z,32.60
2018-05-15T13:01:39.332Z,32.10
2018-05-15T13:04:06.813Z,32.40
2018-05-15T13:06:35.060Z,32.00
2018-05-15T13:09:02.604Z,31.90
2018-05-15T13:11:30.236Z,31.80
2018-05-15T13:13:57.836Z,33.00
2018-05-15T13:16:25.400Z,33.00
2018-05-15T13:18:52.898Z,32.60
2018-05-15T13:21:20.399Z,32.30
2018-05-15T13:23:48.338Z,34.10
2018-05-15T13:26:16.605Z,33.20
2018-05-15T13:28:44.100Z,33.00
2018-05-15T13:31:11.602Z,34.10
2018-05-15T13:33:39.882Z,33.50
2018-05-15T13:36:08.236Z,33.00
2018-05-15T13:38:35.700Z,33.00
2018-05-15T13:41:04.053Z,33.70
2018-05-15T13:43:32.257Z,33.70
2018-05-15T13:46:00.519Z,33.70
2018-05-15T13:48:28.044Z,33.70
2018-05-15T13:50:55.534Z,33.10
2018-05-15T13:53:23.470Z,33.30
2018-05-15T13:55:50.945Z,32.80
2018-05-15T13:58:18.450Z,31.80
2018-05-15T14:00:45.943Z,30.90
2018-05-15T14:03:13.429Z,31.50
2018-05-15T14:05:40.938Z,33.80
2018-05-15T14:08:09.313Z,32.30
2018-05-15T14:10:36.808Z,32.30
2018-05-15T14:13:04.296Z,32.30
2018-05-15T14:15:32.565Z,32.20
2018-05-15T14:18:00.839Z,32.10
2018-05-15T14:20:28.342Z,31.80
2018-05-15T14:22:55.863Z,32.20
2018-05-15T14:25:24.144Z,30.90
2018-05-15T14:27:52.443Z,30.60
2018-05-15T14:30:19.924Z,30.60
2018-05-15T14:32:48.657Z,30.30
2018-05-15T14:35:16.952Z,32.00
2018-05-15T14:37:44.457Z,32.00
2018-05-15T14:40:11.959Z,30.30
2018-05-15T14:42:51.303Z,30.40
2018-05-15T14:45:19.680Z,31.60
2018-05-15T14:47:47.928Z,31.40
2018-05-15T14:50:15.431Z,31.40
2018-05-15T14:52:42.943Z,32.40
2018-05-15T14:55:10.449Z,32.30
2018-05-15T14:57:37.930Z,32.30
2018-05-15T15:00:05.444Z,31.30
2018-05-15T15:02:32.937Z,29.80
2018-05-15T15:05:00.459Z,31.40
2018-05-15T15:07:28.706Z,32.90
2018-05-15T15:09:56.228Z,31.80
2018-05-15T15:12:24.505Z,33.80
2018-05-15T15:14:51.989Z,33.80
2018-05-15T15:17:19.513Z,34.40
2018-05-15T15:19:47.751Z,32.20
2018-05-15T15:22:15.325Z,32.20
2018-05-15T15:24:43.594Z,31.90
2018-05-15T15:27:12.470Z,32.20
2018-05-15T15:29:39.958Z,32.20
2018-05-15T15:32:07.918Z,32.00
2018-05-15T15:34:36.201Z,32.00
2018-05-15T15:37:03.746Z,32.00
2018-05-15T15:39:32.442Z,32.60
2018-05-15T15:41:59.928Z,32.60
2018-05-15T15:44:27.445Z,32.00
2018-05-15T15:46:55.707Z,31.30
2018-05-15T15:49:23.230Z,31.30
2018-05-15T15:51:51.200Z,32.60
2018-05-15T15:54:19.166Z,32.10
2018-05-15T15:56:46.685Z,31.10
2018-05-15T15:59:14.930Z,32.60
2018-05-15T16:01:42.453Z,32.60
2018-05-15T16:04:10.700Z,33.10
2018-05-15T16:06:38.145Z,32.50
2018-05-15T16:09:06.389Z,33.00
2018-05-15T16:11:33.914Z,33.00
2018-05-15T16:14:01.389Z,33.50
2018-05-15T16:16:28.868Z,31.60
2018-05-15T16:18:56.417Z,31.10
2018-05-15T16:21:23.919Z,30.80
2018-05-15T16:23:51.430Z,32.50
2018-05-15T16:26:18.974Z,32.50
2018-05-15T16:28:46.544Z,32.80
2018-05-15T16:31:14.048Z,33.40
2018-05-15T16:33:43.147Z,34.00
2018-05-15T16:36:10.639Z,34.00
2018-05-15T16:38:38.149Z,34.60
2018-05-15T16:41:06.421Z,35.20
2018-05-15T16:43:33.946Z,35.20
2018-05-15T16:46:01.461Z,36.10
2018-05-15T16:48:28.971Z,36.80
2018-05-15T16:50:56.556Z,36.80
2018-05-15T16:53:24.858Z,36.70
2018-05-15T16:55:53.121Z,37.00
2018-05-15T16:58:21.359Z,37.00
2018-05-15T17:00:48.852Z,37.00
2018-05-15T17:03:17.157Z,36.70
2018-05-15T17:05:45.307Z,36.70
2018-05-15T17:08:13.648Z,35.70
2018-05-15T17:10:41.081Z,35.70
2018-05-15T17:13:08.634Z,35.50
2018-05-15T17:15:36.072Z,35.50
2018-05-15T17:18:03.562Z,35.50
2018-05-15T17:20:31.778Z,36.20
2018-05-15T17:23:00.091Z,34.40
2018-05-15T17:25:27.619Z,34.40
2018-05-15T17:27:56.543Z,31.30
2018-05-15T17:30:24.049Z,31.30
2018-05-15T17:32:51.555Z,30.10
2018-05-15T17:35:19.624Z,29.20
2018-05-15T17:37:47.909Z,28.20
2018-05-15T17:40:15.401Z,28.20
2018-05-15T17:42:42.882Z,27.60
2018-05-15T17:45:11.195Z,27.30
2018-05-15T17:47:38.711Z,27.30
2018-05-15T17:50:07.594Z,26.60
2018-05-15T17:52:35.105Z,26.60
2018-05-15T17:55:02.668Z,27.20
2018-05-15T17:57:30.200Z,27.20
2018-05-15T17:59:57.719Z,27.30
2018-05-15T18:02:25.251Z,27.60
2018-05-15T18:04:53.639Z,26.80
2018-05-15T18:07:21.210Z,27.60
2018-05-15T18:09:48.697Z,27.40
2018-05-15T18:12:16.971Z,28.30
2018-05-15T18:14:45.240Z,30.30
2018-05-15T18:17:13.634Z,30.30
2018-05-15T18:19:42.715Z,32.10
2018-05-15T18:22:10.980Z,32.90
2018-05-15T18:24:39.067Z,32.40
2018-05-15T18:27:07.339Z,35.40
2018-05-15T18:29:35.606Z,37.30
2018-05-15T18:32:03.079Z,36.40
2018-05-15T18:34:31.477Z,38.10
2018-05-15T18:36:58.995Z,38.00
2018-05-15T18:39:26.547Z,42.10
2018-05-15T18:41:54.044Z,46.00
2018-05-15T18:44:22.305Z,49.10
2018-05-15T18:46:51.431Z,49.10
2018-05-15T18:49:19.035Z,49.10
2018-05-15T18:51:46.555Z,49.80
2018-05-15T18:54:14.092Z,50.50
2018-05-15T18:56:42.373Z,48.40
2018-05-15T18:59:10.720Z,46.50
2018-05-15T19:01:38.180Z,46.50
2018-05-15T19:04:05.716Z,46.60
2018-05-15T19:06:33.211Z,46.20
2018-05-15T19:09:01.453Z,46.70
2018-05-15T19:11:29.695Z,46.70
2018-05-15T19:13:57.205Z,47.20
2018-05-15T19:16:24.705Z,46.80
2018-05-15T19:18:52.210Z,46.90
2018-05-15T19:21:19.687Z,46.80
2018-05-15T19:23:47.969Z,47.90
2018-05-15T19:26:16.358Z,47.20
2018-05-15T19:28:45.325Z,47.70
2018-05-15T19:31:16.628Z,47.70
2018-05-15T19:33:50.396Z,47.40
2018-05-15T19:36:18.665Z,47.70
2018-05-15T19:38:47.660Z,49.10
2018-05-15T19:41:19.778Z,48.00
2018-05-15T19:43:47.291Z,48.00
2018-05-15T19:46:15.546Z,48.10
2018-05-15T19:48:43.032Z,48.10
2018-05-15T19:51:11.911Z,48.00
2018-05-15T19:53:40.167Z,47.60
2018-05-15T19:56:07.699Z,47.60
2018-05-15T19:58:35.216Z,48.40
2018-05-15T20:01:03.008Z,47.90
2018-05-15T20:03:30.580Z,48.50
2018-05-15T20:05:58.111Z,48.00
2018-05-15T20:08:25.687Z,48.20
2018-05-15T20:10:53.195Z,48.00
2018-05-15T20:13:21.535Z,48.40
2018-05-15T20:15:49.021Z,48.40
2018-05-15T20:18:16.550Z,48.60
2018-05-15T20:20:44.046Z,48.80
2018-05-15T20:23:12.324Z,49.40
2018-05-15T20:25:39.820Z,49.10
2018-05-15T20:28:07.378Z,49.30
2018-05-15T20:30:35.058Z,49.40
2018-05-15T20:33:02.580Z,49.60
2018-05-15T20:35:30.893Z,50.00
2018-05-15T20:37:58.410Z,50.10
2018-05-15T20:40:26.704Z,50.10
2018-05-15T20:42:54.230Z,50.10
2018-05-15T20:45:21.724Z,50.30
2018-05-15T20:47:49.238Z,50.30
2018-05-15T20:50:16.737Z,50.70
2018-05-15T20:52:44.222Z,50.60
2018-05-15T20:55:11.782Z,50.60
2018-05-15T20:57:39.311Z,50.50
2018-05-15T21:00:06.817Z,50.90
2018-05-15T21:02:34.355Z,51.00
2018-05-15T21:05:01.843Z,51.30
2018-05-15T21:07:29.433Z,51.20
2018-05-15T21:09:57.710Z,51.50
2018-05-15T21:12:26.417Z,51.70
2018-05-15T21:14:53.944Z,51.70
2018-05-15T21:17:22.198Z,52.20
2018-05-15T21:19:49.738Z,52.20
2018-05-15T21:22:17.252Z,52.50
2018-05-15T21:24:44.754Z,52.60
2018-05-15T21:27:12.286Z,52.90
2018-05-15T21:29:39.827Z,53.00
2018-05-15T21:32:07.325Z,53.20
2018-05-15T21:34:34.929Z,53.30
2018-05-15T21:37:04.651Z,53.40
2018-05-15T21:39:32.759Z,53.40
2018-05-15T21:42:00.299Z,53.60
2018-05-15T21:44:28.458Z,53.80
2018-05-15T21:46:56.453Z,53.80
2018-05-15T21:49:23.972Z,53.80
2018-05-15T21:51:52.230Z,54.00
2018-05-15T21:54:19.743Z,53.90
2018-05-15T21:56:47.257Z,54.00
2018-05-15T21:59:15.601Z,54.50
2018-05-15T22:01:43.181Z,54.50
2018-05-15T22:04:10.815Z,54.60
2018-05-15T22:06:39.189Z,54.60
2018-05-15T22:09:06.682Z,55.00
2018-05-15T22:11:46.077Z,55.00
2018-05-15T22:14:25.381Z,55.10
2018-05-15T22:17:04.800Z,55.10
2018-05-15T22:19:44.096Z,55.20
2018-05-15T22:22:14.965Z,55.60
2018-05-15T22:24:42.489Z,56.00
2018-05-15T22:27:10.011Z,56.20
2018-05-15T22:29:37.508Z,56.60
2018-05-15T22:32:04.996Z,56.70
2018-05-15T22:34:33.140Z,57.00
2018-05-15T22:37:00.595Z,57.00
2018-05-15T22:39:28.090Z,57.00
2018-05-15T22:41:56.860Z,57.60
2018-05-15T22:44:24.353Z,57.50
2018-05-15T22:46:51.828Z,57.70
2018-05-15T22:49:19.300Z,58.80
2018-05-15T22:51:47.539Z,58.80
2018-05-15T22:54:15.779Z,58.60
2018-05-15T22:56:43.286Z,58.70
2018-05-15T22:59:10.782Z,59.00
2018-05-15T23:01:39.567Z,58.50
2018-05-15T23:04:07.048Z,58.30
2018-05-15T23:06:34.684Z,58.40
2018-05-15T23:09:03.346Z,58.40
2018-05-15T23:11:31.616Z,59.30
2018-05-15T23:13:59.116Z,58.70
2018-05-15T23:16:27.327Z,58.60
2018-05-15T23:18:55.581Z,59.00
2018-05-15T23:21:23.062Z,59.00
2018-05-15T23:23:51.323Z,58.90
2018-05-15T23:26:19.585Z,59.10
2018-05-15T23:28:47.792Z,59.10
2018-05-15T23:31:16.041Z,57.70
2018-05-15T23:33:43.526Z,57.60
2018-05-15T23:36:11.019Z,57.80
2018-05-15T23:38:38.989Z,57.80
2018-05-15T23:41:06.513Z,57.30
2018-05-15T23:43:34.785Z,57.30
2018-05-15T23:46:02.329Z,57.20
2018-05-15T23:48:30.623Z,57.20
2018-05-15T23:50:58.902Z,57.30
2018-05-15T23:53:27.005Z,57.40
2018-05-15T23:55:54.515Z,57.00
2018-05-15T23:58:23.382Z,57.30
